Weather at Bob Hope Airport

Public forecast

Using degrees Fahrenheit for public forecast. Weather courtesy of forecast.io.

Current aviation weather report (METAR) for Bob Hope Airport

Retrieved 2021/05/14 22:53 UTC (50 minutes ago):

KBUR 142253Z 19010KT 10SM CLR 22/10 A2990 RMK AO2 SLP115 T02220100

Aviation forecast (TAF) for Bob Hope Airport

Retrieved 2021/05/14 18:45 UTC (5 hours ago):

TAF KBUR 141739Z 1418/1518 VRB05KT 4SM BR OVC013 FM141900 18005KT P6SM SCT015 FM142100 18009KT P6SM SKC FM150600 VRB05KT P6SM OVC015 FM151100 VRB03KT P6SM OVC008 FM151700 VRB05KT P6SM OVC010